sensor_id;sensor_type;location;lat;lon;timestamp;pressure;altitude;pressure_sealevel;temperature;humidity
47761;BME280;33524;55.434;38.520;2023-03-26T13:33:18;98501.31;;;6.85;99.24
47761;BME280;33524;55.434;38.520;2023-03-26T13:36:20;98494.81;;;6.80;99.36
47761;BME280;33524;55.434;38.520;2023-03-26T13:39:22;98499.94;;;6.91;97.37
47761;BME280;33524;55.434;38.520;2023-03-26T13:42:09;98492.84;;;7.03;93.30
47761;BME280;33524;55.434;38.520;2023-03-26T13:47:41;98484.72;;;7.16;91.78
47761;BME280;33524;55.434;38.520;2023-03-26T13:52:52;98490.38;;;7.40;87.98
47761;BME280;33524;55.434;38.520;2023-03-26T13:55:32;98491.31;;;7.10;92.66
47761;BME280;33524;55.434;38.520;2023-03-26T13:58:21;98488.97;;;7.07;92.29
47761;BME280;33524;55.434;38.520;2023-03-26T14:01:07;98489.12;;;7.15;91.29
47761;BME280;33524;55.434;38.520;2023-03-26T14:03:57;98494.22;;;7.07;92.52
47761;BME280;33524;55.434;38.520;2023-03-26T14:06:36;98491.44;;;7.08;92.59
47761;BME280;33524;55.434;38.520;2023-03-26T14:17:08;98493.59;;;6.74;98.28
47761;BME280;33524;55.434;38.520;2023-03-26T14:20:08;98500.41;;;6.65;99.14
47761;BME280;33524;55.434;38.520;2023-03-26T14:26:14;98480.12;;;6.79;95.71
47761;BME280;33524;55.434;38.520;2023-03-26T14:29:39;98484.69;;;6.96;91.82
47761;BME280;33524;55.434;38.520;2023-03-26T14:41:05;98474.13;;;7.07;91.74
47761;BME280;33524;55.434;38.520;2023-03-26T14:44:08;98474.66;;;7.01;92.17
47761;BME280;33524;55.434;38.520;2023-03-26T14:47:18;98476.00;;;6.86;94.21
47761;BME280;33524;55.434;38.520;2023-03-26T14:50:52;98480.41;;;6.85;93.17
47761;BME280;33524;55.434;38.520;2023-03-26T14:52:54;98475.69;;;6.70;96.39
47761;BME280;33524;55.434;38.520;2023-03-26T15:01:43;98474.00;;;6.59;96.70
47761;BME280;33524;55.434;38.520;2023-03-26T15:07:51;98471.59;;;6.77;92.78
47761;BME280;33524;55.434;38.520;2023-03-26T15:39:34;98470.22;;;6.73;92.61
47761;BME280;33524;55.434;38.520;2023-03-26T15:43:08;98467.41;;;6.55;95.25
47761;BME280;33524;55.434;38.520;2023-03-26T15:49:40;98466.81;;;6.41;97.53
47761;BME280;33524;55.434;38.520;2023-03-26T15:57:43;98470.41;;;6.50;95.19
47761;BME280;33524;55.434;38.520;2023-03-26T16:00:23;98467.69;;;6.52;95.57
47761;BME280;33524;55.434;38.520;2023-03-26T16:08:46;98468.03;;;6.37;98.10
47761;BME280;33524;55.434;38.520;2023-03-26T16:11:41;98470.44;;;6.60;93.60
47761;BME280;33524;55.434;38.520;2023-03-26T16:24:18;98468.84;;;6.38;96.60
47761;BME280;33524;55.434;38.520;2023-03-26T16:26:53;98470.13;;;6.43;95.54
47761;BME280;33524;55.434;38.520;2023-03-26T16:29:28;98473.69;;;6.42;96.31
47761;BME280;33524;55.434;38.520;2023-03-26T16:32:24;98463.63;;;6.38;97.45
47761;BME280;33524;55.434;38.520;2023-03-26T16:35:21;98460.22;;;6.37;98.19
47761;BME280;33524;55.434;38.520;2023-03-26T16:38:12;98466.28;;;6.47;95.36
47761;BME280;33524;55.434;38.520;2023-03-26T16:41:06;98441.72;;;6.19;98.10
47761;BME280;33524;55.434;38.520;2023-03-26T16:43:51;98464.84;;;6.34;96.70
47761;BME280;33524;55.434;38.520;2023-03-26T16:46:41;98466.16;;;6.49;96.07
47761;BME280;33524;55.434;38.520;2023-03-26T16:49:25;98454.41;;;6.34;98.83
47761;BME280;33524;55.434;38.520;2023-03-26T16:55:18;98461.19;;;6.46;95.05
47761;BME280;33524;55.434;38.520;2023-03-26T16:57:54;98452.78;;;6.33;99.47
47761;BME280;33524;55.434;38.520;2023-03-26T17:01:07;98459.97;;;6.19;100.00
47761;BME280;33524;55.434;38.520;2023-03-26T17:03:49;98456.81;;;6.16;100.00
47761;BME280;33524;55.434;38.520;2023-03-26T17:07:37;98457.91;;;6.13;100.00
47761;BME280;33524;55.434;38.520;2023-03-26T17:09:32;98452.16;;;6.19;99.45
47761;BME280;33524;55.434;38.520;2023-03-26T17:12:16;98455.94;;;6.05;100.00
47761;BME280;33524;55.434;38.520;2023-03-26T17:20:38;98460.91;;;6.09;100.00
47761;BME280;33524;55.434;38.520;2023-03-26T17:29:09;98456.50;;;6.09;100.00
47761;BME280;33524;55.434;38.520;2023-03-26T17:32:08;98455.94;;;6.05;100.00
47761;BME280;33524;55.434;38.520;2023-03-26T17:37:31;98455.94;;;6.05;100.00
47761;BME280;33524;55.434;38.520;2023-03-26T17:40:25;98461.16;;;6.05;100.00
47761;BME280;33524;55.434;38.520;2023-03-26T17:43:05;98458.25;;;5.99;100.00
47761;BME280;33524;55.434;38.520;2023-03-26T17:45:39;98459.75;;;6.01;100.00
47761;BME280;33524;55.434;38.520;2023-03-26T17:48:33;98463.06;;;6.03;100.00
47761;BME280;33524;55.434;38.520;2023-03-26T17:53:53;98454.88;;;6.08;100.00
47761;BME280;33524;55.434;38.520;2023-03-26T17:56:28;98444.94;;;6.02;100.00
47761;BME280;33524;55.434;38.520;2023-03-26T17:59:01;98452.31;;;5.97;100.00
47761;BME280;33524;55.434;38.520;2023-03-26T18:01:43;98449.78;;;6.06;100.00
47761;BME280;33524;55.434;38.520;2023-03-26T18:04:20;98444.94;;;6.02;100.00
47761;BME280;33524;55.434;38.520;2023-03-26T18:07:13;98454.34;;;6.14;99.10
47761;BME280;33524;55.434;38.520;2023-03-26T18:09:55;98441.13;;;6.06;100.00
47761;BME280;33524;55.434;38.520;2023-03-26T18:18:07;98426.09;;;5.98;100.00
47761;BME280;33524;55.434;38.520;2023-03-26T18:20:40;98436.78;;;5.95;100.00
47761;BME280;33524;55.434;38.520;2023-03-26T18:23:29;98437.13;;;6.02;100.00
47761;BME280;33524;55.434;38.520;2023-03-26T18:26:44;98421.00;;;5.97;100.00
47761;BME280;33524;55.434;38.520;2023-03-26T18:32:15;98435.22;;;6.14;99.74
47761;BME280;33524;55.434;38.520;2023-03-26T18:34:56;98433.72;;;6.11;100.00
47761;BME280;33524;55.434;38.520;2023-03-26T18:37:32;98430.00;;;6.14;99.99
47761;BME280;33524;55.434;38.520;2023-03-26T18:42:46;98429.28;;;6.02;100.00
47761;BME280;33524;55.434;38.520;2023-03-26T18:45:30;98427.97;;;6.17;100.00
47761;BME280;33524;55.434;38.520;2023-03-26T18:48:09;98434.69;;;6.10;100.00
47761;BME280;33524;55.434;38.520;2023-03-26T18:50:45;98427.97;;;6.17;100.00
47761;BME280;33524;55.434;38.520;2023-03-26T18:53:20;98432.63;;;6.14;100.00
47761;BME280;33524;55.434;38.520;2023-03-26T18:55:53;98429.19;;;6.13;100.00
47761;BME280;33524;55.434;38.520;2023-03-26T19:01:02;98431.19;;;6.00;100.00
47761;BME280;33524;55.434;38.520;2023-03-26T19:03:46;98426.84;;;6.10;100.00
47761;BME280;33524;55.434;38.520;2023-03-26T19:06:19;98425.13;;;6.20;98.77
47761;BME280;33524;55.434;38.520;2023-03-26T19:08:52;98427.56;;;6.12;100.00
47761;BME280;33524;55.434;38.520;2023-03-26T19:11:24;98421.88;;;6.07;100.00
47761;BME280;33524;55.434;38.520;2023-03-26T19:14:04;98422.00;;;6.05;100.00
47761;BME280;33524;55.434;38.520;2023-03-26T19:16:36;98414.97;;;5.96;100.00
47761;BME280;33524;55.434;38.520;2023-03-26T19:19:19;98422.41;;;6.01;100.00
47761;BME280;33524;55.434;38.520;2023-03-26T19:21:53;98418.84;;;6.02;100.00
47761;BME280;33524;55.434;38.520;2023-03-26T19:24:27;98419.38;;;5.96;100.00
47761;BME280;33524;55.434;38.520;2023-03-26T19:26:59;98414.06;;;6.07;100.00
47761;BME280;33524;55.434;38.520;2023-03-26T19:29:32;98416.66;;;6.07;100.00
47761;BME280;33524;55.434;38.520;2023-03-26T19:32:28;98416.13;;;6.13;100.00
47761;BME280;33524;55.434;38.520;2023-03-26T19:35:03;98410.34;;;6.10;100.00
47761;BME280;33524;55.434;38.520;2023-03-26T19:37:50;98414.50;;;6.12;100.00
47761;BME280;33524;55.434;38.520;2023-03-26T19:40:23;98408.59;;;6.10;100.00
47761;BME280;33524;55.434;38.520;2023-03-26T19:42:59;98413.53;;;6.13;100.00
47761;BME280;33524;55.434;38.520;2023-03-26T19:45:34;98406.63;;;6.02;100.00
47761;BME280;33524;55.434;38.520;2023-03-26T19:48:32;98382.25;;;5.92;100.00
47761;BME280;33524;55.434;38.520;2023-03-26T19:51:20;98399.87;;;6.00;100.00
47761;BME280;33524;55.434;38.520;2023-03-26T19:53:55;98406.66;;;6.12;100.00
47761;BME280;33524;55.434;38.520;2023-03-26T19:56:27;98401.06;;;6.17;100.00
47761;BME280;33524;55.434;38.520;2023-03-26T19:58:59;98401.69;;;6.09;100.00
47761;BME280;33524;55.434;38.520;2023-03-26T20:01:31;98404.59;;;6.06;100.00
47761;BME280;33524;55.434;38.520;2023-03-26T20:04:04;98403.38;;;6.10;100.00
47761;BME280;33524;55.434;38.520;2023-03-26T20:06:35;98411.28;;;5.99;100.00
47761;BME280;33524;55.434;38.520;2023-03-26T20:09:12;98400.25;;;5.95;100.00
47761;BME280;33524;55.434;38.520;2023-03-26T20:11:42;98399.53;;;5.93;100.00
47761;BME280;33524;55.434;38.520;2023-03-26T20:14:17;98401.31;;;5.93;100.00
47761;BME280;33524;55.434;38.520;2023-03-26T20:16:55;98404.66;;;5.95;100.00
47761;BME280;33524;55.434;38.520;2023-03-26T20:19:26;98389.94;;;5.94;100.00
47761;BME280;33524;55.434;38.520;2023-03-26T20:21:58;98391.84;;;5.92;100.00
47761;BME280;33524;55.434;38.520;2023-03-26T20:24:28;98387.72;;;5.89;100.00
47761;BME280;33524;55.434;38.520;2023-03-26T20:27:01;98386.50;;;5.93;100.00
47761;BME280;33524;55.434;38.520;2023-03-26T20:29:32;98391.38;;;5.98;100.00
47761;BME280;33524;55.434;38.520;2023-03-26T20:32:17;98384.97;;;5.91;100.00
47761;BME280;33524;55.434;38.520;2023-03-26T20:34:49;98387.03;;;5.87;100.00
47761;BME280;33524;55.434;38.520;2023-03-26T20:37:21;98392.37;;;5.85;100.00
47761;BME280;33524;55.434;38.520;2023-03-26T20:39:53;98392.81;;;5.91;100.00
47761;BME280;33524;55.434;38.520;2023-03-26T20:42:25;98380.84;;;5.88;100.00
47761;BME280;33524;55.434;38.520;2023-03-26T20:44:56;98384.81;;;5.82;100.00
47761;BME280;33524;55.434;38.520;2023-03-26T20:47:27;98383.97;;;5.82;100.00
47761;BME280;33524;55.434;38.520;2023-03-26T20:49:58;98386.88;;;5.89;100.00
47761;BME280;33524;55.434;38.520;2023-03-26T20:52:32;98377.81;;;5.83;100.00
47761;BME280;33524;55.434;38.520;2023-03-26T20:55:04;98381.25;;;5.83;100.00
47761;BME280;33524;55.434;38.520;2023-03-26T20:57:35;98387.94;;;5.76;100.00
47761;BME280;33524;55.434;38.520;2023-03-26T21:00:10;98381.50;;;5.80;100.00
47761;BME280;33524;55.434;38.520;2023-03-26T21:02:56;98365.81;;;5.71;100.00
47761;BME280;33524;55.434;38.520;2023-03-26T21:05:29;98387.28;;;5.84;100.00
47761;BME280;33524;55.434;38.520;2023-03-26T21:08:01;98383.06;;;5.93;100.00
47761;BME280;33524;55.434;38.520;2023-03-26T21:10:32;98386.06;;;5.88;100.00
47761;BME280;33524;55.434;38.520;2023-03-26T21:15:55;98381.44;;;5.92;100.00
47761;BME280;33524;55.434;38.520;2023-03-26T21:18:30;98380.44;;;5.93;100.00
47761;BME280;33524;55.434;38.520;2023-03-26T21:21:18;98384.97;;;5.91;100.00
47761;BME280;33524;55.434;38.520;2023-03-26T21:23:58;98380.56;;;5.81;100.00
47761;BME280;33524;55.434;38.520;2023-03-26T21:26:42;98382.66;;;5.87;100.00
47761;BME280;33524;55.434;38.520;2023-03-26T21:29:16;98374.81;;;5.87;100.00
47761;BME280;33524;55.434;38.520;2023-03-26T21:31:47;98377.41;;;5.87;100.00
47761;BME280;33524;55.434;38.520;2023-03-26T21:34:23;98381.94;;;5.85;100.00
47761;BME280;33524;55.434;38.520;2023-03-26T21:36:54;98383.34;;;5.90;100.00
47761;BME280;33524;55.434;38.520;2023-03-26T21:39:26;98378.63;;;5.83;100.00
47761;BME280;33524;55.434;38.520;2023-03-26T21:41:58;98364.97;;;5.70;100.00
47761;BME280;33524;55.434;38.520;2023-03-26T21:44:34;98376.16;;;5.82;100.00
47761;BME280;33524;55.434;38.520;2023-03-26T21:47:06;98380.69;;;5.80;100.00
47761;BME280;33524;55.434;38.520;2023-03-26T21:49:39;98381.78;;;5.77;100.00
47761;BME280;33524;55.434;38.520;2023-03-26T21:52:11;98381.06;;;5.75;100.00
47761;BME280;33524;55.434;38.520;2023-03-26T21:54:43;98381.31;;;5.72;100.00
47761;BME280;33524;55.434;38.520;2023-03-26T22:02:50;98381.06;;;5.75;100.00
47761;BME280;33524;55.434;38.520;2023-03-26T22:06:04;98381.91;;;5.76;100.00
47761;BME280;33524;55.434;38.520;2023-03-26T22:10:58;98377.06;;;5.71;100.00
47761;BME280;33524;55.434;38.520;2023-03-26T22:13:29;98385.72;;;5.72;100.00
47761;BME280;33524;55.434;38.520;2023-03-26T22:16:01;98379.41;;;5.74;100.00
47761;BME280;33524;55.434;38.520;2023-03-26T22:18:33;98383.09;;;5.72;100.00
47761;BME280;33524;55.434;38.520;2023-03-26T22:21:05;98380.50;;;5.72;100.00
47761;BME280;33524;55.434;38.520;2023-03-26T22:23:36;98390.69;;;5.75;100.00
47761;BME280;33524;55.434;38.520;2023-03-26T22:26:08;98380.06;;;5.66;100.00
47761;BME280;33524;55.434;38.520;2023-03-26T22:28:39;98383.69;;;5.75;100.00
47761;BME280;33524;55.434;38.520;2023-03-26T22:31:12;98385.59;;;5.73;100.00
47761;BME280;33524;55.434;38.520;2023-03-26T22:33:43;98385.47;;;5.75;100.00
47761;BME280;33524;55.434;38.520;2023-03-26T22:36:15;98390.94;;;5.72;100.00
47761;BME280;33524;55.434;38.520;2023-03-26T22:38:52;98386.22;;;5.65;100.00
47761;BME280;33524;55.434;38.520;2023-03-26T22:41:24;98392.03;;;5.69;100.00
47761;BME280;33524;55.434;38.520;2023-03-26T22:43:56;98383.63;;;5.65;100.00
47761;BME280;33524;55.434;38.520;2023-03-26T22:46:41;98389.75;;;5.55;100.00
47761;BME280;33524;55.434;38.520;2023-03-26T22:49:15;98389.28;;;5.50;100.00
47761;BME280;33524;55.434;38.520;2023-03-26T22:51:47;98390.50;;;5.45;100.00
47761;BME280;33524;55.434;38.520;2023-03-26T22:54:19;98389.59;;;5.35;100.00
47761;BME280;33524;55.434;38.520;2023-03-26T22:56:51;98393.19;;;5.34;100.00
47761;BME280;33524;55.434;38.520;2023-03-26T22:59:24;98388.91;;;5.12;100.00
47761;BME280;33524;55.434;38.520;2023-03-26T23:01:55;98386.44;;;5.11;100.00
47761;BME280;33524;55.434;38.520;2023-03-26T23:04:26;98394.41;;;4.98;100.00
47761;BME280;33524;55.434;38.520;2023-03-26T23:07:01;98388.84;;;5.02;100.00
47761;BME280;33524;55.434;38.520;2023-03-26T23:09:32;98390.56;;;4.92;100.00
47761;BME280;33524;55.434;38.520;2023-03-26T23:12:04;98391.75;;;4.88;100.00
47761;BME280;33524;55.434;38.520;2023-03-26T23:14:35;98397.94;;;4.76;100.00
47761;BME280;33524;55.434;38.520;2023-03-26T23:17:07;98400.19;;;4.80;100.00
47761;BME280;33524;55.434;38.520;2023-03-26T23:19:44;98403.75;;;4.68;100.00
47761;BME280;33524;55.434;38.520;2023-03-26T23:22:15;98401.75;;;4.60;100.00
47761;BME280;33524;55.434;38.520;2023-03-26T23:24:46;98404.28;;;4.51;100.00
47761;BME280;33524;55.434;38.520;2023-03-26T23:27:18;98406.19;;;4.49;100.00
47761;BME280;33524;55.434;38.520;2023-03-26T23:29:50;98403.91;;;4.55;100.00
47761;BME280;33524;55.434;38.520;2023-03-26T23:32:22;98409.13;;;4.44;100.00
47761;BME280;33524;55.434;38.520;2023-03-26T23:34:54;98407.13;;;4.48;100.00
47761;BME280;33524;55.434;38.520;2023-03-26T23:37:26;98412.34;;;4.36;100.00
47761;BME280;33524;55.434;38.520;2023-03-26T23:39:57;98403.97;;;4.33;100.00
47761;BME280;33524;55.434;38.520;2023-03-26T23:42:29;98403.13;;;4.21;100.00
47761;BME280;33524;55.434;38.520;2023-03-26T23:45:04;98407.87;;;4.16;100.00
47761;BME280;33524;55.434;38.520;2023-03-26T23:47:36;98414.03;;;4.15;100.00
47761;BME280;33524;55.434;38.520;2023-03-26T23:50:10;98414.38;;;4.21;100.00
47761;BME280;33524;55.434;38.520;2023-03-26T23:52:41;98407.75;;;4.06;100.00
47761;BME280;33524;55.434;38.520;2023-03-26T23:55:14;98412.38;;;4.14;100.00
47761;BME280;33524;55.434;38.520;2023-03-26T23:57:47;98410.00;;;3.99;100.00
